Astor — C6JR3 — position and weather

sailwx.info

Track history (hours):
 
Tides and Currents Weather Stations Pressure Air Temp Water Temp Dewpoint Dewpoint Depression Visibility Wind Speed Wind Dir Waves Ship Positions

Astor

Operator: Passat Ship Management Ltd

Last reported at 2018-Jul-22 03:00 UTC. Time now 2018-Jul-22 03:19 UTC.
Position N 53°53' E 007°40'.

Length 176 m; draft 6.2 m.

Type: Ship. MMSI: 308214000.

Date/timePositionNaut miles runAvg speedWind from/ knotsBaromVisibWave heightAir tempDewpointWater temp
2018-Jul-22 03:00N 53°53' E 007°40'713.1
2018-Jul-22 02:30N 53°54' E 007°29'713.4
2018-Jul-22 02:00N 53°52' E 007°17'713.5
2018-Jul-22 01:30N 53°51' E 007°06'713.8
2018-Jul-22 01:00N 53°50' E 006°55'713.8
2018-Jul-22 00:30N 53°48' E 006°43'714.4
2018-Jul-22 00:00N 53°46' E 006°32'714.6
2018-Jul-21 23:30N 53°44' E 006°20'714.3
2018-Jul-21 23:00N 53°42' E 006°08'714.3
2018-Jul-21 22:30N 53°39' E 005°57'714.1
2018-Jul-21 21:59N 53°37' E 005°45'714.0
2018-Jul-21 21:30N 53°35' E 005°34'713.6
2018-Jul-21 21:00N 53°33' E 005°24'713.8
2018-Jul-21 20:30N 53°31' E 005°12'713.8
2018-Jul-21 20:00N 53°29' E 005°01'713.7
2018-Jul-21 19:30N 53°26' E 004°51'613.1
2018-Jul-21 19:00N 53°22' E 004°42'713.7
2018-Jul-21 18:30N 53°16' E 004°36'713.1
2018-Jul-21 18:00N 53°11' E 004°31'612.1
2018-Jul-21 17:30N 53°06' E 004°25'714.6
2018-Jul-21 17:00N 52°59' E 004°19'815.0
2018-Jul-21 16:30N 52°52' E 004°15'714.7
2018-Jul-21 16:01N 52°46' E 004°09'815.0
2018-Jul-21 15:30N 52°41' E 004°00'815.3
2018-Jul-21 15:01N 52°35' E 003°51'815.2
2018-Jul-21 14:31N 52°30' E 003°42'1515.4
2018-Jul-21 13:31N 52°19' E 003°24'815.8
2018-Jul-21 13:00N 52°13' E 003°15'816.1
2018-Jul-21 12:31N 52°08' E 003°06'816.2
2018-Jul-21 12:01N 52°02' E 002°57'816.5
2018-Jul-21 11:31N 51°56' E 002°48'816.7
2018-Jul-21 11:00N 51°49' E 002°39'816.9
2018-Jul-21 10:30N 51°43' E 002°31'917.1
2018-Jul-21 10:00N 51°36' E 002°22'917.1
2018-Jul-21 09:31N 51°29' E 002°14'917.3
2018-Jul-21 09:01N 51°21' E 002°10'917.2
2018-Jul-21 08:31N 51°14' E 002°02'917.9
2018-Jul-21 08:00N 51°09' E 001°51'918.1
2018-Jul-21 07:31N 51°03' E 001°40'918.8
2018-Jul-21 07:00N 50°56' E 001°30'1018.9
2018-Jul-21 06:28N 50°46' E 001°24'817.6
2018-Jul-21 06:00N 50°39' E 001°16'1917.1
2018-Jul-21 04:52N 50°29' E 000°51'6016.9
2018-Jul-21 01:20N 50°28' W 000°43'716.7
2018-Jul-21 00:55N 50°33' W 000°50'615.2
2018-Jul-21 00:30N 50°38' W 000°56'510.2
2018-Jul-21 00:01N 50°43' W 000°59'713.3
2018-Jul-20 23:31N 50°46' W 001°09'713.1
2018-Jul-20 23:01N 50°47' W 001°19'4 7.9
2018-Jul-20 22:30N 50°51' W 001°20'4 8.2
2018-Jul-20 22:00N 50°54' W 001°25'0 0.0
2018-Jul-20 21:27N 50°54' W 001°25'0 0.0
2018-Jul-20 20:56N 50°54' W 001°25'0 0.0
2018-Jul-20 20:20N 50°54' W 001°25'0 0.0
2018-Jul-20 19:59N 50°54' W 001°25'0 0.0
2018-Jul-20 19:29N 50°54' W 001°25'0 0.0
2018-Jul-20 18:59N 50°54' W 001°25'0 0.0
2018-Jul-20 18:28N 50°54' W 001°25'0 0.0
2018-Jul-20 17:58N 50°54' W 001°25'0 0.0
2018-Jul-20 17:28N 50°54' W 001°25'0 0.0
2018-Jul-20 16:58N 50°54' W 001°25'0 0.0
2018-Jul-20 16:27N 50°54' W 001°25'0 0.0
2018-Jul-20 15:57N 50°54' W 001°25'0 0.0
2018-Jul-20 15:21N 50°54' W 001°25'0 0.0
2018-Jul-20 15:00N 50°54' W 001°25'0 0.0
2018-Jul-20 14:27N 50°54' W 001°25'0 0.0
2018-Jul-20 13:56N 50°54' W 001°25'0 0.0
2018-Jul-20 13:23N 50°54' W 001°25'0 0.0
2018-Jul-20 12:59N 50°54' W 001°25'0 0.0
2018-Jul-20 12:29N 50°54' W 001°25'0 0.0
2018-Jul-20 11:59N 50°54' W 001°25'0 0.0
2018-Jul-20 11:30N 50°54' W 001°25'1 2.1
2018-Jul-20 11:00N 50°53' W 001°24'510.0
2018-Jul-20 10:30N 50°50' W 001°18'510.6
2018-Jul-20 10:00N 50°45' W 001°23'611.4
2018-Jul-20 09:30N 50°43' W 001°31'610.9
2018-Jul-20 08:59N 50°39' W 001°38'1212.1
2018-Jul-20 08:00N 50°33' W 001°54'2214.0
2018-Jul-20 06:27N 50°24' W 002°25'1415.1
2018-Jul-20 05:33N 50°20' W 002°45'115.7
2018-Jul-20 05:30N 50°20' W 002°46'816.0
2018-Jul-20 05:01N 50°17' W 002°58'816.3
2018-Jul-20 04:30N 50°15' W 003°10'816.4
2018-Jul-20 04:01N 50°13' W 003°23'816.6
2018-Jul-20 03:30N 50°11' W 003°35'916.4
2018-Jul-20 02:58N 50°08' W 003°49'816.3
2018-Jul-20 02:30N 50°06' W 004°00'816.3
2018-Jul-20 02:01N 50°04' W 004°12'916.4
2018-Jul-20 01:28N 50°01' W 004°25'4616.4
2018-Jul-19 22:42N 49°54' W 005°35'8414.4
2018-Jul-19 16:52N 51°16' W 005°60'1117.3
2018-Jul-19 16:13N 51°28' W 005°59'917.1
2018-Jul-19 15:42N 51°37' W 005°58'417.0
2018-Jul-19 15:28N 51°41' W 005°58'816.6
2018-Jul-19 15:00N 51°48' W 005°54'1514.8
2018-Jul-19 14:00N 51°57' W 005°35'914.5
2018-Jul-19 13:22N 52°00' W 005°21'514.3
2018-Jul-19 13:01N 52°02' W 005°13'20 1.8
2018-Jul-19 02:05N 52°21' W 005°10'510.6
2018-Jul-19 01:38N 52°26' W 005°13'110.1
2018-Jul-19 01:30N 52°27' W 005°14'510.2
2018-Jul-19 01:00N 52°32' W 005°17'5 9.7
2018-Jul-19 00:30N 52°36' W 005°20'5 9.7
2018-Jul-18 23:59N 52°41' W 005°23'5 9.6
2018-Jul-18 23:27N 52°46' W 005°26'510.1
2018-Jul-18 22:58N 52°50' W 005°29'510.3
2018-Jul-18 22:30N 52°55' W 005°32'510.5
2018-Jul-18 22:00N 52°60' W 005°35'911.3
2018-Jul-18 21:15N 53°07' W 005°41'311.9
2018-Jul-18 21:00N 53°10' W 005°44'612.3
2018-Jul-18 20:30N 53°15' W 005°50'612.0
2018-Jul-18 19:59N 53°20' W 005°56'1 0.1
2018-Jul-18 05:27N 53°20' W 005°58'4 7.7
2018-Jul-18 04:53N 53°17' W 005°52'3 8.1
2018-Jul-18 04:30N 53°15' W 005°50'4 8.4
2018-Jul-18 04:00N 53°11' W 005°46'4 8.7
2018-Jul-18 03:30N 53°08' W 005°42'4 8.4
2018-Jul-18 03:00N 53°04' W 005°38'510.0
2018-Jul-18 02:31N 52°59' W 005°39'611.8
2018-Jul-18 02:00N 52°53' W 005°41'815.2
2018-Jul-18 01:30N 52°46' W 005°45'2016.1
2018-Jul-18 00:15N 52°26' W 005°53'416.7
2018-Jul-18 00:00N 52°23' W 005°55'816.9
2018-Jul-17 23:30N 52°14' W 005°58'816.1
2018-Jul-17 23:00N 52°07' W 006°03'816.3
2018-Jul-17 22:30N 52°03' W 006°15'917.4
2018-Jul-17 22:00N 52°01' W 006°28'917.2
2018-Jul-17 21:29N 51°58' W 006°42'816.5
2018-Jul-17 21:00N 51°56' W 006°55'816.4
2018-Jul-17 20:30N 51°54' W 007°08'816.4
2018-Jul-17 20:00N 51°52' W 007°20'816.4
2018-Jul-17 19:30N 51°50' W 007°33'816.3
2018-Jul-17 19:00N 51°48' W 007°46'816.3
2018-Jul-17 18:30N 51°46' W 007°59'815.1
2018-Jul-17 18:00N 51°45' W 008°11'5 9.6
2018-Jul-17 17:30N 51°49' W 008°16'2 4.7
2018-Jul-17 17:00N 51°51' W 008°18'0 0.0
2018-Jul-17 16:30N 51°51' W 008°18'0 0.0
2018-Jul-17 16:00N 51°51' W 008°18'0 0.0
2018-Jul-17 15:29N 51°51' W 008°18'0 0.0
2018-Jul-17 14:59N 51°51' W 008°18'0 0.0
2018-Jul-17 14:29N 51°51' W 008°18'0 0.0
2018-Jul-17 13:59N 51°51' W 008°18'0 0.0
2018-Jul-17 13:29N 51°51' W 008°18'0 0.0
2018-Jul-17 12:58N 51°51' W 008°18'0 0.0
2018-Jul-17 12:28N 51°51' W 008°18'0 0.0
2018-Jul-17 11:58N 51°51' W 008°18'0 0.0
2018-Jul-17 11:28N 51°51' W 008°18'0 0.0
2018-Jul-17 11:00N 51°51' W 008°18'0 0.0
2018-Jul-17 10:30N 51°51' W 008°18'0 0.0
2018-Jul-17 10:00N 51°51' W 008°18'0 0.0
2018-Jul-17 09:30N 51°51' W 008°18'0 0.0
2018-Jul-17 09:00N 51°51' W 008°18'0 0.0
2018-Jul-17 08:29N 51°51' W 008°18'0 0.0
2018-Jul-17 07:59N 51°51' W 008°18'0 0.0
2018-Jul-17 07:29N 51°51' W 008°18'0 0.0
2018-Jul-17 06:59N 51°51' W 008°18'0 0.1
2018-Jul-17 06:31N 51°51' W 008°18'2 3.1
2018-Jul-17 06:01N 51°50' W 008°16'612.5
2018-Jul-17 05:30N 51°44' W 008°14'612.3
2018-Jul-17 05:01N 51°39' W 008°07'815.6
2018-Jul-17 04:30N 51°33' W 007°59'816.0
2018-Jul-17 04:01N 51°28' W 007°50'816.0
2018-Jul-17 03:31N 51°22' W 007°41'123 6.2
2018-Jul-16 07:30N 50°09' W 005°03'3 6.9
2018-Jul-16 07:00N 50°06' W 005°01'4 7.6
2018-Jul-16 06:30N 50°05' W 004°55'611.3
2018-Jul-16 06:00N 50°05' W 004°47'612.3
2018-Jul-16 05:30N 50°05' W 004°37'612.6
2018-Jul-16 05:01N 50°05' W 004°27'713.0
2018-Jul-16 04:31N 50°05' W 004°17'713.6
2018-Jul-16 04:01N 50°05' W 004°06'714.5
2018-Jul-16 03:30N 50°05' W 003°55'714.9
2018-Jul-16 03:00N 50°04' W 003°44'714.7
2018-Jul-16 02:31N 50°06' W 003°32'816.0
2018-Jul-16 02:00N 50°07' W 003°20'815.8
2018-Jul-16 01:30N 50°08' W 003°08'815.2
2018-Jul-16 01:00N 50°10' W 002°56'714.8
2018-Jul-16 00:30N 50°11' W 002°45'2312.9
2018-Jul-15 22:43N 50°15' W 002°09'511.2
2018-Jul-15 22:17N 50°15' W 002°02'610.8
2018-Jul-15 21:44N 50°16' W 001°52'310.7
2018-Jul-15 21:27N 50°17' W 001°48'510.7
2018-Jul-15 20:57N 50°17' W 001°39'510.9
2018-Jul-15 20:30N 50°18' W 001°32'611.6
2018-Jul-15 20:00N 50°18' W 001°23'612.5
2018-Jul-15 19:30N 50°19' W 001°13'612.9
2018-Jul-15 19:00N 50°21' W 001°03'713.1
2018-Jul-15 18:30N 50°22' W 000°53'714.6
2018-Jul-15 18:01N 50°24' W 000°42'917.6
2018-Jul-15 17:30N 50°26' W 000°29'918.3
2018-Jul-15 17:01N 50°28' W 000°15'918.0
2018-Jul-15 16:31N 50°31' W 000°01'917.9
2018-Jul-15 16:00N 50°33' E 000°12'917.6
2018-Jul-15 15:31N 50°36' E 000°25'917.1
2018-Jul-15 15:01N 50°40' E 000°37'816.4
2018-Jul-15 14:31N 50°44' E 000°48'815.4
2018-Jul-15 14:01N 50°49' E 000°58'714.8
2018-Jul-15 13:31N 50°53' E 001°07'714.3
2018-Jul-15 13:00N 50°58' E 001°16'714.1
2018-Jul-15 12:30N 51°03' E 001°24'815.7
2018-Jul-15 12:00N 51°08' E 001°34'816.6
2018-Jul-15 11:31N 51°13' E 001°44'918.1
2018-Jul-15 11:00N 51°21' E 001°50'918.9
2018-Jul-15 10:30N 51°29' E 001°60'918.9
2018-Jul-15 10:00N 51°36' E 002°10'918.8
2018-Jul-15 09:30N 51°43' E 002°19'918.6
2018-Jul-15 09:00N 51°50' E 002°29'918.1
2018-Jul-15 08:30N 51°57' E 002°39'917.6
2018-Jul-15 08:00N 52°04' E 002°48'816.8
2018-Jul-15 07:30N 52°10' E 002°57'816.2
2018-Jul-15 07:00N 52°17' E 003°04'815.6
2018-Jul-15 06:30N 52°23' E 003°12'815.2
2018-Jul-15 06:00N 52°30' E 003°19'714.9
2018-Jul-15 05:30N 52°35' E 003°26'714.7
2018-Jul-15 05:00N 52°41' E 003°34'714.6
2018-Jul-15 04:30N 52°47' E 003°41'714.5
2018-Jul-15 04:00N 52°52' E 003°49'714.6
2018-Jul-15 03:30N 52°58' E 003°57'915.3
2018-Jul-15 02:55N 53°04' E 004°08'716.4
2018-Jul-15 02:29N 53°07' E 004°19'815.9
2018-Jul-15 02:00N 53°13' E 004°27'917.0
2018-Jul-15 01:30N 53°21' E 004°31'816.7
2018-Jul-15 01:00N 53°29' E 004°37'917.2
2018-Jul-15 00:30N 53°33' E 004°50'917.1
2018-Jul-15 00:00N 53°36' E 005°03'916.7
2018-Jul-14 23:28N 53°38' E 005°18'816.1
2018-Jul-14 23:00N 53°41' E 005°30'815.8
2018-Jul-14 22:30N 53°43' E 005°43'815.2
2018-Jul-14 22:00N 53°45' E 005°55'714.9
2018-Jul-14 21:30N 53°47' E 006°07'714.8
2018-Jul-14 21:00N 53°49' E 006°19'4715.3
2018-Jul-14 17:54N 53°58' E 007°38'913.2
2018-Jul-14 17:12N 53°52' E 007°51'312.1
2018-Jul-14 16:57N 53°52' E 007°56'715.9
2018-Jul-14 16:30N 53°49' E 008°07'917.9
2018-Jul-14 16:00N 53°43' E 008°18'816.9
2018-Jul-14 15:30N 53°37' E 008°28'4 8.4
2018-Jul-14 14:58N 53°34' E 008°33'0 0.0
2018-Jul-14 14:28N 53°34' E 008°33'0 0.0
2018-Jul-14 13:28N 53°34' E 008°33'0 0.0
2018-Jul-14 13:00N 53°34' E 008°33'0 0.0
2018-Jul-14 12:30N 53°34' E 008°33'0 0.0
2018-Jul-14 12:00N 53°34' E 008°33'0 0.0
2018-Jul-14 11:27N 53°34' E 008°33'0 0.0
2018-Jul-14 10:59N 53°34' E 008°33'0 0.0
2018-Jul-14 10:29N 53°34' E 008°33'0 0.0
2018-Jul-14 09:59N 53°34' E 008°33'0 0.0
2018-Jul-14 09:29N 53°34' E 008°33'0 0.0
2018-Jul-14 08:59N 53°34' E 008°33'0 0.0
2018-Jul-14 08:28N 53°34' E 008°33'0 0.1
2018-Jul-14 08:01N 53°34' E 008°33'1 1.9
2018-Jul-14 07:30N 53°35' E 008°32'510.2
2018-Jul-14 07:00N 53°38' E 008°26'612.2
2018-Jul-14 06:30N 53°42' E 008°19'713.2
2018-Jul-14 06:00N 53°47' E 008°10'612.7
2018-Jul-14 05:30N 53°51' E 008°02'611.8
2018-Jul-14 05:01N 53°52' E 007°52'5 8.8
2018-Jul-14 04:29N 53°53' E 007°45'29314.1
2018-Jul-13 07:44N 57°48' E 002°31'14316.1
2018-Jul-12 22:51N 59°10' W 001°13'  
Track history (hours):
 
Tides and Currents Weather Stations Pressure Air Temp Water Temp Dewpoint Dewpoint Depression Visibility Wind Speed Wind Dir Waves Ship Positions

Astor

Operator: Passat Ship Management Ltd

Last reported at 2018-Jul-22 03:00 UTC. Time now 2018-Jul-22 03:19 UTC.
Position N 53°53' E 007°40'.

Length 176 m; draft 6.2 m.

Type: Ship. MMSI: 308214000.

Date/timePositionNaut miles runAvg speedWind from/ knotsBaromVisibWave heightAir tempDewpointWater temp
2018-Jul-22 03:00N 53°53' E 007°40'713.1
2018-Jul-22 02:30N 53°54' E 007°29'713.4
2018-Jul-22 02:00N 53°52' E 007°17'713.5
2018-Jul-22 01:30N 53°51' E 007°06'713.8
2018-Jul-22 01:00N 53°50' E 006°55'713.8
2018-Jul-22 00:30N 53°48' E 006°43'714.4
2018-Jul-22 00:00N 53°46' E 006°32'714.6
2018-Jul-21 23:30N 53°44' E 006°20'714.3
2018-Jul-21 23:00N 53°42' E 006°08'714.3
2018-Jul-21 22:30N 53°39' E 005°57'714.1
2018-Jul-21 21:59N 53°37' E 005°45'714.0
2018-Jul-21 21:30N 53°35' E 005°34'713.6
2018-Jul-21 21:00N 53°33' E 005°24'713.8
2018-Jul-21 20:30N 53°31' E 005°12'713.8
2018-Jul-21 20:00N 53°29' E 005°01'713.7
2018-Jul-21 19:30N 53°26' E 004°51'613.1
2018-Jul-21 19:00N 53°22' E 004°42'713.7
2018-Jul-21 18:30N 53°16' E 004°36'713.1
2018-Jul-21 18:00N 53°11' E 004°31'612.1
2018-Jul-21 17:30N 53°06' E 004°25'714.6
2018-Jul-21 17:00N 52°59' E 004°19'815.0
2018-Jul-21 16:30N 52°52' E 004°15'714.7
2018-Jul-21 16:01N 52°46' E 004°09'815.0
2018-Jul-21 15:30N 52°41' E 004°00'815.3
2018-Jul-21 15:01N 52°35' E 003°51'815.2
2018-Jul-21 14:31N 52°30' E 003°42'1515.4
2018-Jul-21 13:31N 52°19' E 003°24'815.8
2018-Jul-21 13:00N 52°13' E 003°15'816.1
2018-Jul-21 12:31N 52°08' E 003°06'816.2
2018-Jul-21 12:01N 52°02' E 002°57'816.5
2018-Jul-21 11:31N 51°56' E 002°48'816.7
2018-Jul-21 11:00N 51°49' E 002°39'816.9
2018-Jul-21 10:30N 51°43' E 002°31'917.1
2018-Jul-21 10:00N 51°36' E 002°22'917.1
2018-Jul-21 09:31N 51°29' E 002°14'917.3
2018-Jul-21 09:01N 51°21' E 002°10'917.2
2018-Jul-21 08:31N 51°14' E 002°02'917.9
2018-Jul-21 08:00N 51°09' E 001°51'918.1
2018-Jul-21 07:31N 51°03' E 001°40'918.8
2018-Jul-21 07:00N 50°56' E 001°30'1018.9
2018-Jul-21 06:28N 50°46' E 001°24'817.6
2018-Jul-21 06:00N 50°39' E 001°16'1917.1
2018-Jul-21 04:52N 50°29' E 000°51'6016.9
2018-Jul-21 01:20N 50°28' W 000°43'716.7
2018-Jul-21 00:55N 50°33' W 000°50'615.2
2018-Jul-21 00:30N 50°38' W 000°56'510.2
2018-Jul-21 00:01N 50°43' W 000°59'713.3
2018-Jul-20 23:31N 50°46' W 001°09'713.1
2018-Jul-20 23:01N 50°47' W 001°19'4 7.9
2018-Jul-20 22:30N 50°51' W 001°20'4 8.2
2018-Jul-20 22:00N 50°54' W 001°25'0 0.0
2018-Jul-20 21:27N 50°54' W 001°25'0 0.0
2018-Jul-20 20:56N 50°54' W 001°25'0 0.0
2018-Jul-20 20:20N 50°54' W 001°25'0 0.0
2018-Jul-20 19:59N 50°54' W 001°25'0 0.0
2018-Jul-20 19:29N 50°54' W 001°25'0 0.0
2018-Jul-20 18:59N 50°54' W 001°25'0 0.0
2018-Jul-20 18:28N 50°54' W 001°25'0 0.0
2018-Jul-20 17:58N 50°54' W 001°25'0 0.0
2018-Jul-20 17:28N 50°54' W 001°25'0 0.0
2018-Jul-20 16:58N 50°54' W 001°25'0 0.0
2018-Jul-20 16:27N 50°54' W 001°25'0 0.0
2018-Jul-20 15:57N 50°54' W 001°25'0 0.0
2018-Jul-20 15:21N 50°54' W 001°25'0 0.0
2018-Jul-20 15:00N 50°54' W 001°25'0 0.0
2018-Jul-20 14:27N 50°54' W 001°25'0 0.0
2018-Jul-20 13:56N 50°54' W 001°25'0 0.0
2018-Jul-20 13:23N 50°54' W 001°25'0 0.0
2018-Jul-20 12:59N 50°54' W 001°25'0 0.0
2018-Jul-20 12:29N 50°54' W 001°25'0 0.0
2018-Jul-20 11:59N 50°54' W 001°25'0 0.0
2018-Jul-20 11:30N 50°54' W 001°25'1 2.1
2018-Jul-20 11:00N 50°53' W 001°24'510.0
2018-Jul-20 10:30N 50°50' W 001°18'510.6
2018-Jul-20 10:00N 50°45' W 001°23'611.4
2018-Jul-20 09:30N 50°43' W 001°31'610.9
2018-Jul-20 08:59N 50°39' W 001°38'1212.1
2018-Jul-20 08:00N 50°33' W 001°54'2214.0
2018-Jul-20 06:27N 50°24' W 002°25'1415.1
2018-Jul-20 05:33N 50°20' W 002°45'115.7
2018-Jul-20 05:30N 50°20' W 002°46'816.0
2018-Jul-20 05:01N 50°17' W 002°58'816.3
2018-Jul-20 04:30N 50°15' W 003°10'816.4
2018-Jul-20 04:01N 50°13' W 003°23'816.6
2018-Jul-20 03:30N 50°11' W 003°35'916.4
2018-Jul-20 02:58N 50°08' W 003°49'816.3
2018-Jul-20 02:30N 50°06' W 004°00'816.3
2018-Jul-20 02:01N 50°04' W 004°12'916.4
2018-Jul-20 01:28N 50°01' W 004°25'4616.4
2018-Jul-19 22:42N 49°54' W 005°35'8414.4
2018-Jul-19 16:52N 51°16' W 005°60'1117.3
2018-Jul-19 16:13N 51°28' W 005°59'917.1
2018-Jul-19 15:42N 51°37' W 005°58'417.0
2018-Jul-19 15:28N 51°41' W 005°58'816.6
2018-Jul-19 15:00N 51°48' W 005°54'1514.8
2018-Jul-19 14:00N 51°57' W 005°35'914.5
2018-Jul-19 13:22N 52°00' W 005°21'514.3
2018-Jul-19 13:01N 52°02' W 005°13'20 1.8
2018-Jul-19 02:05N 52°21' W 005°10'510.6
2018-Jul-19 01:38N 52°26' W 005°13'110.1
2018-Jul-19 01:30N 52°27' W 005°14'510.2
2018-Jul-19 01:00N 52°32' W 005°17'5 9.7
2018-Jul-19 00:30N 52°36' W 005°20'5 9.7
2018-Jul-18 23:59N 52°41' W 005°23'5 9.6
2018-Jul-18 23:27N 52°46' W 005°26'510.1
2018-Jul-18 22:58N 52°50' W 005°29'510.3
2018-Jul-18 22:30N 52°55' W 005°32'510.5
2018-Jul-18 22:00N 52°60' W 005°35'911.3
2018-Jul-18 21:15N 53°07' W 005°41'311.9
2018-Jul-18 21:00N 53°10' W 005°44'612.3
2018-Jul-18 20:30N 53°15' W 005°50'612.0
2018-Jul-18 19:59N 53°20' W 005°56'1 0.1
2018-Jul-18 05:27N 53°20' W 005°58'4 7.7
2018-Jul-18 04:53N 53°17' W 005°52'3 8.1
2018-Jul-18 04:30N 53°15' W 005°50'4 8.4
2018-Jul-18 04:00N 53°11' W 005°46'4 8.7
2018-Jul-18 03:30N 53°08' W 005°42'4 8.4
2018-Jul-18 03:00N 53°04' W 005°38'510.0
2018-Jul-18 02:31N 52°59' W 005°39'611.8
2018-Jul-18 02:00N 52°53' W 005°41'815.2
2018-Jul-18 01:30N 52°46' W 005°45'2016.1
2018-Jul-18 00:15N 52°26' W 005°53'416.7
2018-Jul-18 00:00N 52°23' W 005°55'816.9
2018-Jul-17 23:30N 52°14' W 005°58'816.1
2018-Jul-17 23:00N 52°07' W 006°03'816.3
2018-Jul-17 22:30N 52°03' W 006°15'917.4
2018-Jul-17 22:00N 52°01' W 006°28'917.2
2018-Jul-17 21:29N 51°58' W 006°42'816.5
2018-Jul-17 21:00N 51°56' W 006°55'816.4
2018-Jul-17 20:30N 51°54' W 007°08'816.4
2018-Jul-17 20:00N 51°52' W 007°20'816.4
2018-Jul-17 19:30N 51°50' W 007°33'816.3
2018-Jul-17 19:00N 51°48' W 007°46'816.3
2018-Jul-17 18:30N 51°46' W 007°59'815.1
2018-Jul-17 18:00N 51°45' W 008°11'5 9.6
2018-Jul-17 17:30N 51°49' W 008°16'2 4.7
2018-Jul-17 17:00N 51°51' W 008°18'0 0.0
2018-Jul-17 16:30N 51°51' W 008°18'0 0.0
2018-Jul-17 16:00N 51°51' W 008°18'0 0.0
2018-Jul-17 15:29N 51°51' W 008°18'0 0.0
2018-Jul-17 14:59N 51°51' W 008°18'0 0.0
2018-Jul-17 14:29N 51°51' W 008°18'0 0.0
2018-Jul-17 13:59N 51°51' W 008°18'0 0.0
2018-Jul-17 13:29N 51°51' W 008°18'0 0.0
2018-Jul-17 12:58N 51°51' W 008°18'0 0.0
2018-Jul-17 12:28N 51°51' W 008°18'0 0.0
2018-Jul-17 11:58N 51°51' W 008°18'0 0.0
2018-Jul-17 11:28N 51°51' W 008°18'0 0.0
2018-Jul-17 11:00N 51°51' W 008°18'0 0.0
2018-Jul-17 10:30N 51°51' W 008°18'0 0.0
2018-Jul-17 10:00N 51°51' W 008°18'0 0.0
2018-Jul-17 09:30N 51°51' W 008°18'0 0.0
2018-Jul-17 09:00N 51°51' W 008°18'0 0.0
2018-Jul-17 08:29N 51°51' W 008°18'0 0.0
2018-Jul-17 07:59N 51°51' W 008°18'0 0.0
2018-Jul-17 07:29N 51°51' W 008°18'0 0.0
2018-Jul-17 06:59N 51°51' W 008°18'0 0.1
2018-Jul-17 06:31N 51°51' W 008°18'2 3.1
2018-Jul-17 06:01N 51°50' W 008°16'612.5
2018-Jul-17 05:30N 51°44' W 008°14'612.3
2018-Jul-17 05:01N 51°39' W 008°07'815.6
2018-Jul-17 04:30N 51°33' W 007°59'816.0
2018-Jul-17 04:01N 51°28' W 007°50'816.0
2018-Jul-17 03:31N 51°22' W 007°41'123 6.2
2018-Jul-16 07:30N 50°09' W 005°03'3 6.9
2018-Jul-16 07:00N 50°06' W 005°01'4 7.6
2018-Jul-16 06:30N 50°05' W 004°55'611.3
2018-Jul-16 06:00N 50°05' W 004°47'612.3
2018-Jul-16 05:30N 50°05' W 004°37'612.6
2018-Jul-16 05:01N 50°05' W 004°27'713.0
2018-Jul-16 04:31N 50°05' W 004°17'713.6
2018-Jul-16 04:01N 50°05' W 004°06'714.5
2018-Jul-16 03:30N 50°05' W 003°55'714.9
2018-Jul-16 03:00N 50°04' W 003°44'714.7
2018-Jul-16 02:31N 50°06' W 003°32'816.0
2018-Jul-16 02:00N 50°07' W 003°20'815.8
2018-Jul-16 01:30N 50°08' W 003°08'815.2
2018-Jul-16 01:00N 50°10' W 002°56'714.8
2018-Jul-16 00:30N 50°11' W 002°45'2312.9
2018-Jul-15 22:43N 50°15' W 002°09'511.2
2018-Jul-15 22:17N 50°15' W 002°02'610.8
2018-Jul-15 21:44N 50°16' W 001°52'310.7
2018-Jul-15 21:27N 50°17' W 001°48'510.7
2018-Jul-15 20:57N 50°17' W 001°39'510.9
2018-Jul-15 20:30N 50°18' W 001°32'611.6
2018-Jul-15 20:00N 50°18' W 001°23'612.5
2018-Jul-15 19:30N 50°19' W 001°13'612.9
2018-Jul-15 19:00N 50°21' W 001°03'713.1
2018-Jul-15 18:30N 50°22' W 000°53'714.6
2018-Jul-15 18:01N 50°24' W 000°42'917.6
2018-Jul-15 17:30N 50°26' W 000°29'918.3
2018-Jul-15 17:01N 50°28' W 000°15'918.0
2018-Jul-15 16:31N 50°31' W 000°01'917.9
2018-Jul-15 16:00N 50°33' E 000°12'917.6
2018-Jul-15 15:31N 50°36' E 000°25'917.1
2018-Jul-15 15:01N 50°40' E 000°37'816.4
2018-Jul-15 14:31N 50°44' E 000°48'815.4
2018-Jul-15 14:01N 50°49' E 000°58'714.8
2018-Jul-15 13:31N 50°53' E 001°07'714.3
2018-Jul-15 13:00N 50°58' E 001°16'714.1
2018-Jul-15 12:30N 51°03' E 001°24'815.7
2018-Jul-15 12:00N 51°08' E 001°34'816.6
2018-Jul-15 11:31N 51°13' E 001°44'918.1
2018-Jul-15 11:00N 51°21' E 001°50'918.9
2018-Jul-15 10:30N 51°29' E 001°60'918.9
2018-Jul-15 10:00N 51°36' E 002°10'918.8
2018-Jul-15 09:30N 51°43' E 002°19'918.6
2018-Jul-15 09:00N 51°50' E 002°29'918.1
2018-Jul-15 08:30N 51°57' E 002°39'917.6
2018-Jul-15 08:00N 52°04' E 002°48'816.8
2018-Jul-15 07:30N 52°10' E 002°57'816.2
2018-Jul-15 07:00N 52°17' E 003°04'815.6
2018-Jul-15 06:30N 52°23' E 003°12'815.2
2018-Jul-15 06:00N 52°30' E 003°19'714.9
2018-Jul-15 05:30N 52°35' E 003°26'714.7
2018-Jul-15 05:00N 52°41' E 003°34'714.6
2018-Jul-15 04:30N 52°47' E 003°41'714.5
2018-Jul-15 04:00N 52°52' E 003°49'714.6
2018-Jul-15 03:30N 52°58' E 003°57'915.3
2018-Jul-15 02:55N 53°04' E 004°08'716.4
2018-Jul-15 02:29N 53°07' E 004°19'815.9
2018-Jul-15 02:00N 53°13' E 004°27'917.0
2018-Jul-15 01:30N 53°21' E 004°31'816.7
2018-Jul-15 01:00N 53°29' E 004°37'917.2
2018-Jul-15 00:30N 53°33' E 004°50'917.1
2018-Jul-15 00:00N 53°36' E 005°03'916.7
2018-Jul-14 23:28N 53°38' E 005°18'816.1
2018-Jul-14 23:00N 53°41' E 005°30'815.8
2018-Jul-14 22:30N 53°43' E 005°43'815.2
2018-Jul-14 22:00N 53°45' E 005°55'714.9
2018-Jul-14 21:30N 53°47' E 006°07'714.8
2018-Jul-14 21:00N 53°49' E 006°19'4715.3
2018-Jul-14 17:54N 53°58' E 007°38'913.2
2018-Jul-14 17:12N 53°52' E 007°51'312.1
2018-Jul-14 16:57N 53°52' E 007°56'715.9
2018-Jul-14 16:30N 53°49' E 008°07'917.9
2018-Jul-14 16:00N 53°43' E 008°18'816.9
2018-Jul-14 15:30N 53°37' E 008°28'4 8.4
2018-Jul-14 14:58N 53°34' E 008°33'0 0.0
2018-Jul-14 14:28N 53°34' E 008°33'0 0.0
2018-Jul-14 13:28N 53°34' E 008°33'0 0.0
2018-Jul-14 13:00N 53°34' E 008°33'0 0.0
2018-Jul-14 12:30N 53°34' E 008°33'0 0.0
2018-Jul-14 12:00N 53°34' E 008°33'0 0.0
2018-Jul-14 11:27N 53°34' E 008°33'0 0.0
2018-Jul-14 10:59N 53°34' E 008°33'0 0.0
2018-Jul-14 10:29N 53°34' E 008°33'0 0.0
2018-Jul-14 09:59N 53°34' E 008°33'0 0.0
2018-Jul-14 09:29N 53°34' E 008°33'0 0.0
2018-Jul-14 08:59N 53°34' E 008°33'0 0.0
2018-Jul-14 08:28N 53°34' E 008°33'0 0.1
2018-Jul-14 08:01N 53°34' E 008°33'1 1.9
2018-Jul-14 07:30N 53°35' E 008°32'510.2
2018-Jul-14 07:00N 53°38' E 008°26'612.2
2018-Jul-14 06:30N 53°42' E 008°19'713.2
2018-Jul-14 06:00N 53°47' E 008°10'612.7
2018-Jul-14 05:30N 53°51' E 008°02'611.8
2018-Jul-14 05:01N 53°52' E 007°52'5 8.8
2018-Jul-14 04:29N 53°53' E 007°45'29314.1
2018-Jul-13 07:44N 57°48' E 002°31'14316.1
2018-Jul-12 22:51N 59°10' W 001°13'  

Dump ship's entire track history